sensor_id;sensor_type;location;lat;lon;timestamp;temperature;humidity
37658;DHT22;23500;53.268;8.308;2023-06-05T00:01:43;18.00;65.50
37658;DHT22;23500;53.268;8.308;2023-06-05T00:04:09;18.00;65.40
37658;DHT22;23500;53.268;8.308;2023-06-05T00:06:35;18.00;65.60
37658;DHT22;23500;53.268;8.308;2023-06-05T00:09:03;18.00;65.60
37658;DHT22;23500;53.268;8.308;2023-06-05T00:11:29;18.00;65.60
37658;DHT22;23500;53.268;8.308;2023-06-05T00:13:55;18.00;65.70
37658;DHT22;23500;53.268;8.308;2023-06-05T00:16:20;18.00;65.60
37658;DHT22;23500;53.268;8.308;2023-06-05T00:18:46;18.00;65.50
37658;DHT22;23500;53.268;8.308;2023-06-05T00:21:12;18.00;65.60
37658;DHT22;23500;53.268;8.308;2023-06-05T00:23:38;17.90;65.40
37658;DHT22;23500;53.268;8.308;2023-06-05T00:26:04;18.00;65.30
37658;DHT22;23500;53.268;8.308;2023-06-05T00:28:29;17.90;65.30
37658;DHT22;23500;53.268;8.308;2023-06-05T00:30:55;17.90;65.30
37658;DHT22;23500;53.268;8.308;2023-06-05T00:33:21;17.90;65.30
37658;DHT22;23500;53.268;8.308;2023-06-05T00:35:47;17.90;65.30
37658;DHT22;23500;53.268;8.308;2023-06-05T00:38:12;17.90;65.40
37658;DHT22;23500;53.268;8.308;2023-06-05T00:40:38;17.90;65.30
37658;DHT22;23500;53.268;8.308;2023-06-05T00:43:03;17.80;65.20
37658;DHT22;23500;53.268;8.308;2023-06-05T00:45:31;17.80;65.50
37658;DHT22;23500;53.268;8.308;2023-06-05T00:47:57;17.80;65.50
37658;DHT22;23500;53.268;8.308;2023-06-05T00:50:23;17.80;65.70
37658;DHT22;23500;53.268;8.308;2023-06-05T00:52:49;17.80;65.50
37658;DHT22;23500;53.268;8.308;2023-06-05T00:55:16;17.80;65.50
37658;DHT22;23500;53.268;8.308;2023-06-05T00:57:43;17.80;65.70
37658;DHT22;23500;53.268;8.308;2023-06-05T01:00:10;17.80;65.70
37658;DHT22;23500;53.268;8.308;2023-06-05T01:02:38;17.80;65.70
37658;DHT22;23500;53.268;8.308;2023-06-05T01:05:05;17.80;65.60
37658;DHT22;23500;53.268;8.308;2023-06-05T01:07:35;17.70;65.60
37658;DHT22;23500;53.268;8.308;2023-06-05T01:10:06;17.70;66.00
37658;DHT22;23500;53.268;8.308;2023-06-05T01:15:35;17.70;66.20
37658;DHT22;23500;53.268;8.308;2023-06-05T01:18:02;17.70;65.80
37658;DHT22;23500;53.268;8.308;2023-06-05T01:20:38;17.70;65.90
37658;DHT22;23500;53.268;8.308;2023-06-05T01:23:08;17.70;66.20
37658;DHT22;23500;53.268;8.308;2023-06-05T01:25:34;17.70;66.20
37658;DHT22;23500;53.268;8.308;2023-06-05T01:28:16;17.60;66.30
37658;DHT22;23500;53.268;8.308;2023-06-05T01:30:57;17.60;66.70
37658;DHT22;23500;53.268;8.308;2023-06-05T01:33:31;17.60;66.40
37658;DHT22;23500;53.268;8.308;2023-06-05T01:36:01;17.60;66.30
37658;DHT22;23500;53.268;8.308;2023-06-05T01:38:32;17.60;66.30
37658;DHT22;23500;53.268;8.308;2023-06-05T01:40:58;17.60;66.30
37658;DHT22;23500;53.268;8.308;2023-06-05T01:43:25;17.60;66.40
37658;DHT22;23500;53.268;8.308;2023-06-05T01:45:51;17.50;66.30
37658;DHT22;23500;53.268;8.308;2023-06-05T01:48:17;17.60;66.10
37658;DHT22;23500;53.268;8.308;2023-06-05T01:50:43;17.60;66.30
37658;DHT22;23500;53.268;8.308;2023-06-05T01:53:09;17.60;66.30
37658;DHT22;23500;53.268;8.308;2023-06-05T01:55:36;17.50;66.10
37658;DHT22;23500;53.268;8.308;2023-06-05T01:58:04;17.50;66.40
37658;DHT22;23500;53.268;8.308;2023-06-05T02:00:30;17.50;66.20
37658;DHT22;23500;53.268;8.308;2023-06-05T02:02:55;17.50;66.40
37658;DHT22;23500;53.268;8.308;2023-06-05T02:05:22;17.50;66.40
37658;DHT22;23500;53.268;8.308;2023-06-05T02:07:49;17.50;66.50
37658;DHT22;23500;53.268;8.308;2023-06-05T02:10:19;17.50;66.60
37658;DHT22;23500;53.268;8.308;2023-06-05T02:12:45;17.50;66.70
37658;DHT22;23500;53.268;8.308;2023-06-05T02:15:11;17.50;66.50
37658;DHT22;23500;53.268;8.308;2023-06-05T02:17:41;17.40;66.70
37658;DHT22;23500;53.268;8.308;2023-06-05T02:20:11;17.40;66.60
37658;DHT22;23500;53.268;8.308;2023-06-05T02:22:38;17.40;66.80
37658;DHT22;23500;53.268;8.308;2023-06-05T02:25:05;17.40;66.60
37658;DHT22;23500;53.268;8.308;2023-06-05T02:27:31;17.40;66.70
37658;DHT22;23500;53.268;8.308;2023-06-05T02:29:56;17.40;67.00
37658;DHT22;23500;53.268;8.308;2023-06-05T02:32:22;17.40;67.00
37658;DHT22;23500;53.268;8.308;2023-06-05T02:35:00;17.40;67.20
37658;DHT22;23500;53.268;8.308;2023-06-05T02:37:26;17.40;67.40
37658;DHT22;23500;53.268;8.308;2023-06-05T02:39:53;17.40;67.50
37658;DHT22;23500;53.268;8.308;2023-06-05T02:42:19;17.40;67.50
37658;DHT22;23500;53.268;8.308;2023-06-05T02:44:48;17.40;67.50
37658;DHT22;23500;53.268;8.308;2023-06-05T02:47:14;17.40;67.60
37658;DHT22;23500;53.268;8.308;2023-06-05T02:49:40;17.40;67.50
37658;DHT22;23500;53.268;8.308;2023-06-05T02:52:06;17.40;67.30
37658;DHT22;23500;53.268;8.308;2023-06-05T02:54:31;17.40;67.10
37658;DHT22;23500;53.268;8.308;2023-06-05T02:56:57;17.40;67.10
37658;DHT22;23500;53.268;8.308;2023-06-05T02:59:25;17.40;67.70
37658;DHT22;23500;53.268;8.308;2023-06-05T03:01:53;17.40;66.90
37658;DHT22;23500;53.268;8.308;2023-06-05T03:04:18;17.30;66.70
37658;DHT22;23500;53.268;8.308;2023-06-05T03:06:49;17.30;66.90
37658;DHT22;23500;53.268;8.308;2023-06-05T03:09:16;17.30;66.50
37658;DHT22;23500;53.268;8.308;2023-06-05T03:11:42;17.30;66.70
37658;DHT22;23500;53.268;8.308;2023-06-05T03:14:08;17.30;66.50
37658;DHT22;23500;53.268;8.308;2023-06-05T03:16:34;17.30;66.60
37658;DHT22;23500;53.268;8.308;2023-06-05T03:19:07;17.30;66.70
37658;DHT22;23500;53.268;8.308;2023-06-05T03:21:34;17.30;66.70
37658;DHT22;23500;53.268;8.308;2023-06-05T03:24:00;17.30;66.50
37658;DHT22;23500;53.268;8.308;2023-06-05T03:26:27;17.30;66.40
37658;DHT22;23500;53.268;8.308;2023-06-05T03:28:52;17.30;66.70
37658;DHT22;23500;53.268;8.308;2023-06-05T03:31:18;17.30;66.80
37658;DHT22;23500;53.268;8.308;2023-06-05T03:33:44;17.30;66.70
37658;DHT22;23500;53.268;8.308;2023-06-05T03:36:10;17.30;66.70
37658;DHT22;23500;53.268;8.308;2023-06-05T03:38:36;17.30;66.70
37658;DHT22;23500;53.268;8.308;2023-06-05T03:41:01;17.30;66.90
37658;DHT22;23500;53.268;8.308;2023-06-05T03:43:27;17.30;66.70
37658;DHT22;23500;53.268;8.308;2023-06-05T03:45:53;17.30;66.80
37658;DHT22;23500;53.268;8.308;2023-06-05T03:48:18;17.30;66.80
37658;DHT22;23500;53.268;8.308;2023-06-05T03:50:47;17.30;66.50
37658;DHT22;23500;53.268;8.308;2023-06-05T03:53:16;17.30;66.80
37658;DHT22;23500;53.268;8.308;2023-06-05T03:55:44;17.30;66.70
37658;DHT22;23500;53.268;8.308;2023-06-05T03:58:15;17.40;67.10
37658;DHT22;23500;53.268;8.308;2023-06-05T04:00:45;17.40;67.20
37658;DHT22;23500;53.268;8.308;2023-06-05T04:03:12;17.40;66.90
37658;DHT22;23500;53.268;8.308;2023-06-05T04:05:38;17.40;66.80
37658;DHT22;23500;53.268;8.308;2023-06-05T04:08:05;17.40;66.60
37658;DHT22;23500;53.268;8.308;2023-06-05T04:10:30;17.40;66.70
37658;DHT22;23500;53.268;8.308;2023-06-05T04:12:56;17.50;67.30
37658;DHT22;23500;53.268;8.308;2023-06-05T04:15:26;17.60;67.20
37658;DHT22;23500;53.268;8.308;2023-06-05T04:17:52;17.80;66.70
37658;DHT22;23500;53.268;8.308;2023-06-05T04:20:18;18.00;65.90
37658;DHT22;23500;53.268;8.308;2023-06-05T04:22:44;18.20;65.00
37658;DHT22;23500;53.268;8.308;2023-06-05T04:25:13;18.40;64.50
37658;DHT22;23500;53.268;8.308;2023-06-05T04:27:40;18.60;64.10
37658;DHT22;23500;53.268;8.308;2023-06-05T04:30:07;18.70;63.60
37658;DHT22;23500;53.268;8.308;2023-06-05T04:32:33;18.90;63.40
37658;DHT22;23500;53.268;8.308;2023-06-05T04:35:06;19.10;62.60
37658;DHT22;23500;53.268;8.308;2023-06-05T04:37:35;19.20;62.40
37658;DHT22;23500;53.268;8.308;2023-06-05T04:40:02;19.30;62.40
37658;DHT22;23500;53.268;8.308;2023-06-05T04:42:34;19.50;62.60
37658;DHT22;23500;53.268;8.308;2023-06-05T04:45:04;19.60;62.70
37658;DHT22;23500;53.268;8.308;2023-06-05T04:47:31;19.70;62.70
37658;DHT22;23500;53.268;8.308;2023-06-05T04:50:01;19.80;62.50
37658;DHT22;23500;53.268;8.308;2023-06-05T04:52:33;19.90;62.30
37658;DHT22;23500;53.268;8.308;2023-06-05T04:55:00;20.00;62.00
37658;DHT22;23500;53.268;8.308;2023-06-05T04:57:29;20.10;61.80
37658;DHT22;23500;53.268;8.308;2023-06-05T04:59:55;20.20;61.70
37658;DHT22;23500;53.268;8.308;2023-06-05T05:02:24;20.30;61.50
37658;DHT22;23500;53.268;8.308;2023-06-05T05:04:50;20.30;61.30
37658;DHT22;23500;53.268;8.308;2023-06-05T05:07:15;20.40;61.10
37658;DHT22;23500;53.268;8.308;2023-06-05T05:09:42;20.50;61.00
37658;DHT22;23500;53.268;8.308;2023-06-05T05:12:09;20.50;60.90
37658;DHT22;23500;53.268;8.308;2023-06-05T05:14:35;20.60;60.70
37658;DHT22;23500;53.268;8.308;2023-06-05T05:17:02;20.70;60.50
37658;DHT22;23500;53.268;8.308;2023-06-05T05:19:28;20.70;60.40
37658;DHT22;23500;53.268;8.308;2023-06-05T05:21:54;20.80;60.30
37658;DHT22;23500;53.268;8.308;2023-06-05T05:24:20;20.80;60.10
37658;DHT22;23500;53.268;8.308;2023-06-05T05:26:46;20.90;60.00
37658;DHT22;23500;53.268;8.308;2023-06-05T05:29:12;20.90;60.00
37658;DHT22;23500;53.268;8.308;2023-06-05T05:31:37;21.00;60.00
37658;DHT22;23500;53.268;8.308;2023-06-05T05:34:03;21.00;59.80
37658;DHT22;23500;53.268;8.308;2023-06-05T05:36:29;21.00;59.80
37658;DHT22;23500;53.268;8.308;2023-06-05T05:38:54;21.10;59.70
37658;DHT22;23500;53.268;8.308;2023-06-05T05:41:20;21.10;59.60
37658;DHT22;23500;53.268;8.308;2023-06-05T05:43:48;21.10;59.60
37658;DHT22;23500;53.268;8.308;2023-06-05T05:46:14;21.20;59.50
37658;DHT22;23500;53.268;8.308;2023-06-05T05:48:40;21.20;59.50
37658;DHT22;23500;53.268;8.308;2023-06-05T05:51:06;21.20;59.40
37658;DHT22;23500;53.268;8.308;2023-06-05T05:53:32;21.30;59.40
37658;DHT22;23500;53.268;8.308;2023-06-05T05:55:59;21.30;59.30
37658;DHT22;23500;53.268;8.308;2023-06-05T05:58:25;21.30;59.30
37658;DHT22;23500;53.268;8.308;2023-06-05T06:00:51;21.40;59.20
37658;DHT22;23500;53.268;8.308;2023-06-05T06:03:17;21.40;59.20
37658;DHT22;23500;53.268;8.308;2023-06-05T06:05:43;21.40;59.10
37658;DHT22;23500;53.268;8.308;2023-06-05T06:08:10;21.40;59.10
37658;DHT22;23500;53.268;8.308;2023-06-05T06:10:36;21.40;59.00
37658;DHT22;23500;53.268;8.308;2023-06-05T06:13:02;21.50;59.00
37658;DHT22;23500;53.268;8.308;2023-06-05T06:15:28;21.50;58.90
37658;DHT22;23500;53.268;8.308;2023-06-05T06:17:53;21.60;58.80
37658;DHT22;23500;53.268;8.308;2023-06-05T06:20:19;21.60;58.80
37658;DHT22;23500;53.268;8.308;2023-06-05T06:22:45;21.60;58.80
37658;DHT22;23500;53.268;8.308;2023-06-05T06:25:12;21.60;58.80
37658;DHT22;23500;53.268;8.308;2023-06-05T06:27:40;21.60;58.80
37658;DHT22;23500;53.268;8.308;2023-06-05T06:30:06;21.60;58.70
37658;DHT22;23500;53.268;8.308;2023-06-05T06:32:32;21.70;58.60
37658;DHT22;23500;53.268;8.308;2023-06-05T06:34:58;21.70;58.40
37658;DHT22;23500;53.268;8.308;2023-06-05T06:37:25;21.70;58.40
37658;DHT22;23500;53.268;8.308;2023-06-05T06:39:50;21.70;58.50
37658;DHT22;23500;53.268;8.308;2023-06-05T06:42:16;21.70;58.50
37658;DHT22;23500;53.268;8.308;2023-06-05T06:44:42;21.70;58.50
37658;DHT22;23500;53.268;8.308;2023-06-05T06:47:08;21.70;58.50
37658;DHT22;23500;53.268;8.308;2023-06-05T06:49:34;21.70;58.40
37658;DHT22;23500;53.268;8.308;2023-06-05T06:52:05;21.80;58.40
37658;DHT22;23500;53.268;8.308;2023-06-05T06:54:30;21.70;58.40
37658;DHT22;23500;53.268;8.308;2023-06-05T06:56:57;21.80;58.50
37658;DHT22;23500;53.268;8.308;2023-06-05T06:59:22;21.70;58.50
37658;DHT22;23500;53.268;8.308;2023-06-05T07:02:09;21.60;58.60
37658;DHT22;23500;53.268;8.308;2023-06-05T07:04:35;21.50;58.90
37658;DHT22;23500;53.268;8.308;2023-06-05T07:07:02;21.40;59.10
37658;DHT22;23500;53.268;8.308;2023-06-05T07:09:28;21.30;59.20
37658;DHT22;23500;53.268;8.308;2023-06-05T07:11:54;21.40;59.20
37658;DHT22;23500;53.268;8.308;2023-06-05T07:14:20;21.40;59.20
37658;DHT22;23500;53.268;8.308;2023-06-05T07:16:45;21.40;59.20
37658;DHT22;23500;53.268;8.308;2023-06-05T07:19:12;21.40;59.20
37658;DHT22;23500;53.268;8.308;2023-06-05T07:21:37;21.40;59.20
37658;DHT22;23500;53.268;8.308;2023-06-05T07:24:05;21.40;59.10
37658;DHT22;23500;53.268;8.308;2023-06-05T07:26:30;21.50;59.00
37658;DHT22;23500;53.268;8.308;2023-06-05T07:28:57;21.50;58.90
37658;DHT22;23500;53.268;8.308;2023-06-05T07:31:23;21.60;58.90
37658;DHT22;23500;53.268;8.308;2023-06-05T07:33:48;21.60;58.90
37658;DHT22;23500;53.268;8.308;2023-06-05T07:36:14;21.60;58.80
37658;DHT22;23500;53.268;8.308;2023-06-05T07:38:40;21.70;58.70
37658;DHT22;23500;53.268;8.308;2023-06-05T07:41:08;21.70;58.70
37658;DHT22;23500;53.268;8.308;2023-06-05T07:43:34;21.70;58.70
37658;DHT22;23500;53.268;8.308;2023-06-05T07:46:00;21.70;58.60
37658;DHT22;23500;53.268;8.308;2023-06-05T07:48:26;21.70;58.70
37658;DHT22;23500;53.268;8.308;2023-06-05T07:50:51;21.70;58.70
37658;DHT22;23500;53.268;8.308;2023-06-05T07:53:17;21.60;58.70
37658;DHT22;23500;53.268;8.308;2023-06-05T07:55:42;21.60;58.70
37658;DHT22;23500;53.268;8.308;2023-06-05T07:58:08;21.60;58.80
37658;DHT22;23500;53.268;8.308;2023-06-05T08:00:34;21.60;58.80
37658;DHT22;23500;53.268;8.308;2023-06-05T08:03:00;21.60;58.80
37658;DHT22;23500;53.268;8.308;2023-06-05T08:05:26;21.60;58.80
37658;DHT22;23500;53.268;8.308;2023-06-05T08:07:52;21.50;58.80
37658;DHT22;23500;53.268;8.308;2023-06-05T08:10:18;21.60;59.30
37658;DHT22;23500;53.268;8.308;2023-06-05T08:12:43;21.50;58.90
37658;DHT22;23500;53.268;8.308;2023-06-05T08:15:09;21.50;59.00
37658;DHT22;23500;53.268;8.308;2023-06-05T08:17:35;21.50;59.00
37658;DHT22;23500;53.268;8.308;2023-06-05T08:20:01;21.40;59.20
37658;DHT22;23500;53.268;8.308;2023-06-05T08:22:30;21.40;59.30
37658;DHT22;23500;53.268;8.308;2023-06-05T08:24:55;21.40;59.30
37658;DHT22;23500;53.268;8.308;2023-06-05T08:27:24;21.40;59.40
37658;DHT22;23500;53.268;8.308;2023-06-05T08:29:50;21.40;59.40
37658;DHT22;23500;53.268;8.308;2023-06-05T08:32:16;21.40;59.40
37658;DHT22;23500;53.268;8.308;2023-06-05T08:34:44;21.30;59.40
37658;DHT22;23500;53.268;8.308;2023-06-05T08:37:10;21.30;59.50
37658;DHT22;23500;53.268;8.308;2023-06-05T08:39:36;21.30;59.50
37658;DHT22;23500;53.268;8.308;2023-06-05T08:42:02;21.30;59.50
37658;DHT22;23500;53.268;8.308;2023-06-05T08:44:29;21.30;59.50
37658;DHT22;23500;53.268;8.308;2023-06-05T08:47:00;21.30;59.60
37658;DHT22;23500;53.268;8.308;2023-06-05T08:49:28;21.20;59.70
37658;DHT22;23500;53.268;8.308;2023-06-05T08:52:05;21.20;59.70
37658;DHT22;23500;53.268;8.308;2023-06-05T08:54:37;21.20;59.90
37658;DHT22;23500;53.268;8.308;2023-06-05T08:57:07;21.10;59.80
37658;DHT22;23500;53.268;8.308;2023-06-05T08:59:33;21.10;59.90
37658;DHT22;23500;53.268;8.308;2023-06-05T09:02:00;21.10;60.00
37658;DHT22;23500;53.268;8.308;2023-06-05T09:04:26;21.10;60.10
37658;DHT22;23500;53.268;8.308;2023-06-05T09:07:04;21.10;60.20
37658;DHT22;23500;53.268;8.308;2023-06-05T09:09:33;21.10;60.20
37658;DHT22;23500;53.268;8.308;2023-06-05T09:12:06;21.10;60.20
37658;DHT22;23500;53.268;8.308;2023-06-05T09:14:33;21.00;61.00
37658;DHT22;23500;53.268;8.308;2023-06-05T09:17:00;21.00;60.30
37658;DHT22;23500;53.268;8.308;2023-06-05T09:19:36;21.00;60.30
37658;DHT22;23500;53.268;8.308;2023-06-05T09:22:03;21.00;60.30
37658;DHT22;23500;53.268;8.308;2023-06-05T09:24:28;21.00;60.40
37658;DHT22;23500;53.268;8.308;2023-06-05T09:27:10;21.00;60.40
37658;DHT22;23500;53.268;8.308;2023-06-05T09:32:08;21.00;60.50
37658;DHT22;23500;53.268;8.308;2023-06-05T09:34:39;21.00;60.50
37658;DHT22;23500;53.268;8.308;2023-06-05T09:37:08;21.00;60.60
37658;DHT22;23500;53.268;8.308;2023-06-05T09:39:37;20.90;60.50
37658;DHT22;23500;53.268;8.308;2023-06-05T09:42:04;20.90;60.60
37658;DHT22;23500;53.268;8.308;2023-06-05T09:44:32;20.90;60.60
37658;DHT22;23500;53.268;8.308;2023-06-05T09:47:02;20.90;60.60
37658;DHT22;23500;53.268;8.308;2023-06-05T09:49:48;20.90;60.60
37658;DHT22;23500;53.268;8.308;2023-06-05T09:52:14;20.90;60.60
37658;DHT22;23500;53.268;8.308;2023-06-05T09:54:43;20.90;60.70
37658;DHT22;23500;53.268;8.308;2023-06-05T09:57:15;20.90;60.70
37658;DHT22;23500;53.268;8.308;2023-06-05T10:02:17;20.90;60.70
37658;DHT22;23500;53.268;8.308;2023-06-05T10:04:48;20.90;60.80
37658;DHT22;23500;53.268;8.308;2023-06-05T10:07:15;20.90;60.80
37658;DHT22;23500;53.268;8.308;2023-06-05T10:09:40;20.90;60.80
37658;DHT22;23500;53.268;8.308;2023-06-05T10:12:07;20.90;60.90
37658;DHT22;23500;53.268;8.308;2023-06-05T10:14:41;20.90;60.90
37658;DHT22;23500;53.268;8.308;2023-06-05T10:17:07;20.90;60.80
37658;DHT22;23500;53.268;8.308;2023-06-05T10:19:33;20.90;60.90
37658;DHT22;23500;53.268;8.308;2023-06-05T10:21:58;20.90;60.90
37658;DHT22;23500;53.268;8.308;2023-06-05T10:24:30;20.90;60.90
37658;DHT22;23500;53.268;8.308;2023-06-05T10:40:33;20.80;61.10
37658;DHT22;23500;53.268;8.308;2023-06-05T10:43:27;20.80;61.20
37658;DHT22;23500;53.268;8.308;2023-06-05T10:45:54;20.80;61.00
37658;DHT22;23500;53.268;8.308;2023-06-05T10:48:20;20.80;61.20
37658;DHT22;23500;53.268;8.308;2023-06-05T10:50:46;20.80;61.20
37658;DHT22;23500;53.268;8.308;2023-06-05T10:53:46;20.80;61.10
37658;DHT22;23500;53.268;8.308;2023-06-05T10:59:15;20.80;61.20
37658;DHT22;23500;53.268;8.308;2023-06-05T11:01:42;20.80;61.30
37658;DHT22;23500;53.268;8.308;2023-06-05T11:04:07;20.80;61.30
37658;DHT22;23500;53.268;8.308;2023-06-05T11:06:33;20.80;61.30
37658;DHT22;23500;53.268;8.308;2023-06-05T11:09:09;20.80;61.30
37658;DHT22;23500;53.268;8.308;2023-06-05T11:11:58;20.80;61.20
37658;DHT22;23500;53.268;8.308;2023-06-05T11:14:25;20.80;61.30
37658;DHT22;23500;53.268;8.308;2023-06-05T11:17:40;20.80;61.40
37658;DHT22;23500;53.268;8.308;2023-06-05T11:27:57;20.80;61.40
37658;DHT22;23500;53.268;8.308;2023-06-05T11:30:30;20.80;61.40
37658;DHT22;23500;53.268;8.308;2023-06-05T11:33:11;20.80;61.40
37658;DHT22;23500;53.268;8.308;2023-06-05T11:35:42;20.80;61.30
37658;DHT22;23500;53.268;8.308;2023-06-05T11:38:18;20.80;61.40
37658;DHT22;23500;53.268;8.308;2023-06-05T11:40:44;20.80;61.40
37658;DHT22;23500;53.268;8.308;2023-06-05T11:43:12;20.80;61.30
37658;DHT22;23500;53.268;8.308;2023-06-05T11:45:38;20.80;61.30
37658;DHT22;23500;53.268;8.308;2023-06-05T11:48:08;20.80;61.20
37658;DHT22;23500;53.268;8.308;2023-06-05T11:50:34;20.80;61.20
37658;DHT22;23500;53.268;8.308;2023-06-05T11:53:07;20.80;61.30
37658;DHT22;23500;53.268;8.308;2023-06-05T11:55:33;20.80;61.30
37658;DHT22;23500;53.268;8.308;2023-06-05T11:58:12;20.80;61.90
37658;DHT22;23500;53.268;8.308;2023-06-05T12:00:45;20.80;61.20
37658;DHT22;23500;53.268;8.308;2023-06-05T12:03:20;20.80;61.20
37658;DHT22;23500;53.268;8.308;2023-06-05T12:05:49;20.80;61.20
37658;DHT22;23500;53.268;8.308;2023-06-05T12:08:25;20.80;61.20
37658;DHT22;23500;53.268;8.308;2023-06-05T12:10:52;20.80;61.20
37658;DHT22;23500;53.268;8.308;2023-06-05T12:13:18;20.80;62.00
37658;DHT22;23500;53.268;8.308;2023-06-05T12:15:58;20.80;61.30
37658;DHT22;23500;53.268;8.308;2023-06-05T12:18:34;20.80;61.30
37658;DHT22;23500;53.268;8.308;2023-06-05T12:21:00;20.80;61.30
37658;DHT22;23500;53.268;8.308;2023-06-05T12:23:28;20.80;61.30
37658;DHT22;23500;53.268;8.308;2023-06-05T12:26:04;20.80;61.40
37658;DHT22;23500;53.268;8.308;2023-06-05T12:28:31;20.80;61.40
37658;DHT22;23500;53.268;8.308;2023-06-05T12:30:57;20.80;61.40
37658;DHT22;23500;53.268;8.308;2023-06-05T12:33:24;20.80;61.40
37658;DHT22;23500;53.268;8.308;2023-06-05T12:36:05;20.80;61.40
37658;DHT22;23500;53.268;8.308;2023-06-05T12:38:37;20.80;61.40
37658;DHT22;23500;53.268;8.308;2023-06-05T12:41:04;20.80;61.40
37658;DHT22;23500;53.268;8.308;2023-06-05T12:43:32;20.80;61.40
37658;DHT22;23500;53.268;8.308;2023-06-05T12:45:58;20.80;61.40
37658;DHT22;23500;53.268;8.308;2023-06-05T12:48:24;20.80;62.20
37658;DHT22;23500;53.268;8.308;2023-06-05T12:50:50;20.80;61.50
37658;DHT22;23500;53.268;8.308;2023-06-05T12:53:16;20.80;61.50
37658;DHT22;23500;53.268;8.308;2023-06-05T12:55:42;20.80;61.50
37658;DHT22;23500;53.268;8.308;2023-06-05T12:58:08;20.80;61.40
37658;DHT22;23500;53.268;8.308;2023-06-05T13:00:33;20.90;61.50
37658;DHT22;23500;53.268;8.308;2023-06-05T13:02:59;20.90;61.50
37658;DHT22;23500;53.268;8.308;2023-06-05T13:05:25;20.90;61.60
37658;DHT22;23500;53.268;8.308;2023-06-05T13:07:50;20.90;61.60
37658;DHT22;23500;53.268;8.308;2023-06-05T13:10:20;20.90;61.60
37658;DHT22;23500;53.268;8.308;2023-06-05T13:12:46;20.80;61.50
37658;DHT22;23500;53.268;8.308;2023-06-05T13:15:12;20.90;61.60
37658;DHT22;23500;53.268;8.308;2023-06-05T13:17:37;20.90;61.60
37658;DHT22;23500;53.268;8.308;2023-06-05T13:20:04;20.90;61.60
37658;DHT22;23500;53.268;8.308;2023-06-05T13:22:32;20.90;61.60
37658;DHT22;23500;53.268;8.308;2023-06-05T13:24:58;20.80;61.60
37658;DHT22;23500;53.268;8.308;2023-06-05T13:27:23;20.80;61.60
37658;DHT22;23500;53.268;8.308;2023-06-05T13:29:49;20.90;61.60
37658;DHT22;23500;53.268;8.308;2023-06-05T13:32:15;20.90;61.60
37658;DHT22;23500;53.268;8.308;2023-06-05T13:34:40;20.90;61.60
37658;DHT22;23500;53.268;8.308;2023-06-05T13:37:06;20.90;61.60
37658;DHT22;23500;53.268;8.308;2023-06-05T13:39:32;20.90;61.70
37658;DHT22;23500;53.268;8.308;2023-06-05T13:41:57;20.90;61.70
37658;DHT22;23500;53.268;8.308;2023-06-05T13:44:23;20.80;61.60
37658;DHT22;23500;53.268;8.308;2023-06-05T13:46:49;20.80;61.60
37658;DHT22;23500;53.268;8.308;2023-06-05T13:49:15;20.80;61.60
37658;DHT22;23500;53.268;8.308;2023-06-05T13:51:41;20.90;61.70
37658;DHT22;23500;53.268;8.308;2023-06-05T13:54:07;20.90;61.70
37658;DHT22;23500;53.268;8.308;2023-06-05T13:56:32;20.90;61.70
37658;DHT22;23500;53.268;8.308;2023-06-05T13:58:58;20.90;61.80
37658;DHT22;23500;53.268;8.308;2023-06-05T14:01:24;20.90;61.70
37658;DHT22;23500;53.268;8.308;2023-06-05T14:03:50;20.90;61.70
37658;DHT22;23500;53.268;8.308;2023-06-05T14:06:17;20.80;61.70
37658;DHT22;23500;53.268;8.308;2023-06-05T14:08:43;20.80;61.80
37658;DHT22;23500;53.268;8.308;2023-06-05T14:11:08;20.80;61.90
37658;DHT22;23500;53.268;8.308;2023-06-05T14:13:35;20.80;61.80
37658;DHT22;23500;53.268;8.308;2023-06-05T14:16:02;20.80;61.80
37658;DHT22;23500;53.268;8.308;2023-06-05T14:18:29;20.80;61.80
37658;DHT22;23500;53.268;8.308;2023-06-05T14:20:55;20.80;62.40
37658;DHT22;23500;53.268;8.308;2023-06-05T14:23:21;20.80;61.70
37658;DHT22;23500;53.268;8.308;2023-06-05T14:25:49;20.80;61.70
37658;DHT22;23500;53.268;8.308;2023-06-05T14:28:15;20.80;61.60
37658;DHT22;23500;53.268;8.308;2023-06-05T14:30:40;20.80;61.60
37658;DHT22;23500;53.268;8.308;2023-06-05T14:33:06;20.80;61.60
37658;DHT22;23500;53.268;8.308;2023-06-05T14:35:32;20.80;61.60
37658;DHT22;23500;53.268;8.308;2023-06-05T14:37:57;20.80;61.60
37658;DHT22;23500;53.268;8.308;2023-06-05T14:40:23;20.80;61.60
37658;DHT22;23500;53.268;8.308;2023-06-05T14:42:50;20.80;61.60
37658;DHT22;23500;53.268;8.308;2023-06-05T14:45:15;20.80;61.60
37658;DHT22;23500;53.268;8.308;2023-06-05T14:47:41;20.80;61.50
37658;DHT22;23500;53.268;8.308;2023-06-05T14:50:08;20.80;61.60
37658;DHT22;23500;53.268;8.308;2023-06-05T14:52:34;20.80;61.60
37658;DHT22;23500;53.268;8.308;2023-06-05T14:55:01;20.80;61.60
37658;DHT22;23500;53.268;8.308;2023-06-05T14:57:27;20.80;61.50
37658;DHT22;23500;53.268;8.308;2023-06-05T14:59:52;20.80;61.60
37658;DHT22;23500;53.268;8.308;2023-06-05T15:02:18;20.80;61.60
37658;DHT22;23500;53.268;8.308;2023-06-05T15:04:50;20.70;61.50
37658;DHT22;23500;53.268;8.308;2023-06-05T15:07:19;20.70;61.50
37658;DHT22;23500;53.268;8.308;2023-06-05T15:09:48;20.80;61.60
37658;DHT22;23500;53.268;8.308;2023-06-05T15:12:14;20.70;61.50
37658;DHT22;23500;53.268;8.308;2023-06-05T15:14:40;20.70;61.50
37658;DHT22;23500;53.268;8.308;2023-06-05T15:17:05;20.70;61.50
37658;DHT22;23500;53.268;8.308;2023-06-05T15:19:33;20.70;61.50
37658;DHT22;23500;53.268;8.308;2023-06-05T15:21:59;20.70;61.50
37658;DHT22;23500;53.268;8.308;2023-06-05T15:24:26;20.70;61.50
37658;DHT22;23500;53.268;8.308;2023-06-05T15:26:52;20.70;61.60
37658;DHT22;23500;53.268;8.308;2023-06-05T15:29:19;20.60;61.70
37658;DHT22;23500;53.268;8.308;2023-06-05T15:31:45;20.70;61.80
37658;DHT22;23500;53.268;8.308;2023-06-05T15:34:10;20.70;61.70
37658;DHT22;23500;53.268;8.308;2023-06-05T15:36:36;20.70;61.40
37658;DHT22;23500;53.268;8.308;2023-06-05T15:39:02;20.80;62.40
37658;DHT22;23500;53.268;8.308;2023-06-05T15:41:28;20.80;62.30
37658;DHT22;23500;53.268;8.308;2023-06-05T15:43:54;20.90;62.50
37658;DHT22;23500;53.268;8.308;2023-06-05T15:46:19;20.90;62.20
37658;DHT22;23500;53.268;8.308;2023-06-05T15:48:47;20.80;62.40
37658;DHT22;23500;53.268;8.308;2023-06-05T15:51:12;20.80;62.40
37658;DHT22;23500;53.268;8.308;2023-06-05T15:53:38;20.80;62.40
37658;DHT22;23500;53.268;8.308;2023-06-05T15:56:04;20.80;62.40
37658;DHT22;23500;53.268;8.308;2023-06-05T15:58:29;20.80;62.50
37658;DHT22;23500;53.268;8.308;2023-06-05T16:00:55;20.70;62.50
37658;DHT22;23500;53.268;8.308;2023-06-05T16:03:21;20.70;62.30
37658;DHT22;23500;53.268;8.308;2023-06-05T16:05:46;20.70;62.10